08XA weather

Knolle Ranch Airport
Snook, Texas, United States

Public forecast

Using degrees Fahrenheit for public forecast. Weather courtesy of forecast.io.

METAR (pilot weather report)

Closest report is Easterwood Field, 9.8 nm (18.1 km) NE. Retrieved 2019/09/23 03:53 UTC (18 minutes ago):

KCLL 230353Z AUTO 14009KT 10SM CLR 27/23 A3002 RMK AO2 SLP160 T02670233

TAF (pilot weather forecast)

Forecast is more than 12 hours old.

Closest forecast is Easterwood Field, 9.8 nm (18.1 km) NE. Retrieved 2019/09/22 00:24 UTC (1 day ago):

TAF KCLL 222321Z 2300/2324 14008KT P6SM SCT250 FM231100 16004KT P6SM SCT006 SCT015 TEMPO 2313/2315 BKN015 FM231500 18006KT P6SM SCT020 SCT035 FM231800 17007KT P6SM SCT045